Digby, Canada
Current Conditions -  °F | °C
As of 1:00 AM on Tuesday 23 Dec 2014 (Local Time) from CYZX Reporting Station
Few Clouds Few Clouds  
Wind Chill: 25°   Ceiling: Unl
Heat Index: 25°   Visibility: 15mi
Dew Point: 21°   Wind: 0mph
Humidity: 86%   Direction: NA
Pressure: 30.46"   Gusts: NA
Location:  44.6°N, 65.75°W
Report Text: CYZX 230500Z 00000KT 15SM FEW026 M04/M06 A3046 RMK SC2 WNDY HILL 12009KT SLP318
Loading
Personal Weather Stations






























Interactive Weather Map New forecast layout! Learn more

10-Day Weather Forecast

Advertisements
Track Severe Weather on mobile